This is the latest recevied weather packets stored in our database for station/object NI4CE-10. If no packets are shown the sender has not sent any weather packets the latest 1 day(s).
| Time | Temp. | Humidity | Pressure | Rain* | Wind** | Luminosity | Snow |
|---|---|---|---|---|---|---|---|
| 1778078189 | 28.33° C | 100% | 1019.5 hPa | 0 mm | - | - | - |
| 1778078142 | 28.33° C | 100% | 1019.5 hPa | 0 mm | - | - | - |
| 1778077842 | 28.33° C | 100% | 1019.5 hPa | 0 mm | - | - | - |
| 1778077542 | 28.33° C | 100% | 1019.5 hPa | 0 mm | - | - | - |
| 1778077280 | 27.78° C | 100% | 1019.5 hPa | 0 mm | - | - | - |
| 1778077242 | 27.78° C | 100% | 1019.5 hPa | 0 mm | - | - | - |
| 1778076942 | 27.78° C | 100% | 1019.5 hPa | 0 mm | - | - | - |
| 1778076642 | 27.22° C | 100% | 1019.6 hPa | 0 mm | - | - | - |
| 1778076042 | 27.22° C | 100% | 1019.6 hPa | 0 mm | - | - | - |
| 1778075742 | 27.22° C | 100% | 1019.5 hPa | 0 mm | - | - | - |
| 1778075442 | 26.67° C | 100% | 1019.6 hPa | 0 mm | - | - | - |
| 1778075142 | 26.11° C | 100% | 1019.5 hPa | 0 mm | - | - | - |
| 1778074842 | 26.11° C | 100% | 1019.5 hPa | 0 mm | - | - | - |
| 1778074796 | 25.56° C | 100% | 1019.4 hPa | 0 mm | - | - | - |
| 1778074242 | 25.56° C | 100% | 1019.4 hPa | 0 mm | - | - | - |
| 1778074020 | 26.11° C | 100% | 1019.4 hPa | 0 mm | - | - | - |
| 1778073942 | 26.11° C | 100% | 1019.4 hPa | 0 mm | - | - | - |
| 1778073687 | 25.56° C | 100% | 1019.4 hPa | 0 mm | - | - | - |
| 1778073081 | 25° C | 100% | 1019.4 hPa | 0 mm | - | - | - |
| 1778073042 | 25° C | 100% | 1019.4 hPa | 0 mm | - | - | - |
| 1778068892 | 20.56° C | 100% | 1018.9 hPa | 0 mm | - | - | - |
| 1778066327 | 17.22° C | 100% | 1018.5 hPa | 0 mm | - | - | - |
| 1778066208 | 17.22° C | 100% | 1018.5 hPa | 0 mm | - | - | - |
| 1778065543 | 17.22° C | 100% | 1018.3 hPa | 0 mm | - | - | - |
| 1778065243 | 16.67° C | 100% | 1018.2 hPa | 0 mm | - | - | - |
* Rain latest hour (hover to see other rain measurements)
** Current wind speed in m/s (hover to see current wind gust speed)